Time;durP1;ratioP1;P1;durP2;ratioP2;P2;SDS_P1;SDS_P2;PMS_P1;PMS_P2;Temp;Humidity;BMP_temperature;BMP_pressure;BME280_temperature;BME280_humidity;BME280_pressure;Samples;Min_cycle;Max_cycle;Signal;HPM_P1;HPM_P2
2022/06/09 00:00:11;;;;;;;15.07;13.57;;;12.80;99.90;;;;;;5070494;28;20463;-69
2022/06/09 00:02:42;;;;;;;14.90;13.70;;;12.80;99.90;;;;;;5069382;28;20459;-69
2022/06/09 00:05:11;;;;;;;24.83;14.73;;;12.80;99.90;;;;;;5072993;28;20463;-70
2022/06/09 00:07:38;;;;;;;17.13;15.07;;;12.80;99.90;;;;;;5067545;28;20490;-68
2022/06/09 00:10:10;;;;;;;15.13;14.00;;;12.90;99.90;;;;;;5074292;28;20674;-69
2022/06/09 00:12:38;;;;;;;21.33;15.80;;;12.80;99.90;;;;;;5060364;28;20635;-69
2022/06/09 00:15:08;;;;;;;14.13;12.80;;;12.80;99.90;;;;;;5067831;28;21000;-69
2022/06/09 00:17:35;;;;;;;20.33;14.07;;;12.80;99.90;;;;;;5072503;28;20498;-69
2022/06/09 00:20:05;;;;;;;19.40;13.37;;;12.90;99.90;;;;;;5065143;28;20461;-69
2022/06/09 00:22:32;;;;;;;18.80;12.90;;;12.90;99.90;;;;;;5075073;28;20510;-69
2022/06/09 00:24:59;;;;;;;22.23;13.73;;;13.00;99.90;;;;;;5068247;28;20469;-70
2022/06/09 00:27:28;;;;;;;19.97;12.07;;;12.90;99.90;;;;;;5070845;28;20490;-70
2022/06/09 00:29:54;;;;;;;14.23;12.73;;;12.80;99.90;;;;;;5072100;28;20455;-69
2022/06/09 00:32:21;;;;;;;18.73;13.70;;;12.80;99.90;;;;;;5072923;28;20873;-69
2022/06/09 00:34:49;;;;;;;28.13;14.27;;;12.70;99.90;;;;;;5069880;28;20946;-69
2022/06/09 00:37:16;;;;;;;14.63;13.33;;;12.80;99.90;;;;;;5070090;28;20494;-69
2022/06/09 00:39:43;;;;;;;19.17;13.87;;;12.80;99.90;;;;;;5076974;28;20458;-69
2022/06/09 00:42:11;;;;;;;19.03;13.43;;;12.80;99.90;;;;;;5071778;28;20469;-69
2022/06/09 00:44:40;;;;;;;21.27;14.27;;;12.90;99.90;;;;;;5072394;28;20846;-69
2022/06/09 00:47:15;;;;;;;13.50;12.60;;;13.00;99.90;;;;;;5062703;28;20495;-69
2022/06/09 00:49:45;;;;;;;19.23;13.33;;;13.00;99.90;;;;;;5060179;28;20462;-69
2022/06/09 00:52:18;;;;;;;17.77;12.37;;;13.00;99.90;;;;;;5071402;28;20473;-69
2022/06/09 00:54:50;;;;;;;21.10;12.13;;;13.10;99.90;;;;;;5077290;28;20573;-69
2022/06/09 00:57:22;;;;;;;15.37;12.30;;;13.00;99.90;;;;;;5073295;28;20459;-69
2022/06/09 00:59:58;;;;;;;17.10;11.50;;;13.10;99.90;;;;;;5075618;28;20454;-70
2022/06/09 01:02:26;;;;;;;23.20;11.63;;;13.10;99.90;;;;;;5077973;28;20526;-69
2022/06/09 01:04:54;;;;;;;28.77;12.43;;;13.10;99.90;;;;;;5061964;28;21059;-69
2022/06/09 01:07:25;;;;;;;13.90;10.77;;;13.10;99.90;;;;;;5075748;28;20998;-69
2022/06/09 01:09:53;;;;;;;19.30;10.57;;;13.10;99.90;;;;;;5066716;28;20474;-69
2022/06/09 01:12:26;;;;;;;19.50;11.20;;;13.10;99.90;;;;;;5066159;28;20464;-67
2022/06/09 01:14:59;;;;;;;16.10;11.83;;;13.10;99.90;;;;;;5073837;28;20486;-67
2022/06/09 01:17:33;;;;;;;17.77;11.27;;;13.10;99.90;;;;;;5067307;28;20968;-67
2022/06/09 01:20:11;;;;;;;18.03;11.07;;;13.10;99.90;;;;;;5070158;28;20687;-67
2022/06/09 01:22:57;;;;;;;14.63;11.50;;;13.10;99.90;;;;;;5074755;28;20474;-66
2022/06/09 01:25:57;;;;;;;12.57;11.13;;;13.10;99.90;;;;;;5064817;28;20467;-67
2022/06/09 01:29:00;;;;;;;18.07;11.70;;;13.10;99.90;;;;;;5021692;28;20493;-68
2022/06/09 01:31:33;;;;;;;19.50;10.20;;;13.10;99.90;;;;;;5077707;28;20973;-66
2022/06/09 01:34:08;;;;;;;15.00;9.77;;;13.10;99.90;;;;;;5073486;28;20808;-66
2022/06/09 01:36:42;;;;;;;19.70;10.13;;;13.10;99.90;;;;;;5075384;28;20798;-66
2022/06/09 01:39:10;;;;;;;21.23;10.20;;;13.10;99.90;;;;;;5066834;28;20463;-67
2022/06/09 01:41:37;;;;;;;15.43;9.10;;;13.10;99.90;;;;;;5084414;28;20463;-69
2022/06/09 01:44:04;;;;;;;29.10;10.70;;;13.10;99.90;;;;;;5069849;28;20493;-67
2022/06/09 01:46:35;;;;;;;14.57;9.63;;;13.10;99.90;;;;;;5077550;28;20455;-66
2022/06/09 01:49:08;;;;;;;24.30;10.50;;;13.10;99.90;;;;;;5072163;28;20478;-68
2022/06/09 01:51:38;;;;;;;16.63;9.60;;;13.20;99.90;;;;;;5069698;28;20472;-68
2022/06/09 01:54:10;;;;;;;17.90;11.07;;;13.20;99.90;;;;;;5075301;28;21180;-67
2022/06/09 01:56:43;;;;;;;13.03;9.40;;;13.20;99.90;;;;;;5081443;28;20463;-67
2022/06/09 01:59:15;;;;;;;17.07;10.50;;;13.20;99.90;;;;;;5076851;28;20490;-67
2022/06/09 02:01:49;;;;;;;23.87;10.90;;;13.20;99.90;;;;;;5076920;28;20462;-66
2022/06/09 02:04:21;;;;;;;12.50;9.00;;;13.20;99.90;;;;;;5066249;28;20461;-66
2022/06/09 02:06:49;;;;;;;19.83;10.50;;;13.20;99.90;;;;;;5080920;28;20446;-67
2022/06/09 02:09:17;;;;;;;16.97;10.70;;;13.20;99.90;;;;;;5070543;28;20489;-66
2022/06/09 02:11:49;;;;;;;14.87;8.77;;;13.20;99.90;;;;;;5073881;28;20928;-66
2022/06/09 02:14:18;;;;;;;21.93;9.00;;;13.20;99.90;;;;;;5072517;28;20479;-66
2022/06/09 02:16:48;;;;;;;19.73;10.73;;;13.20;99.90;;;;;;5077707;28;20535;-67
2022/06/09 02:19:15;;;;;;;14.90;10.27;;;13.30;99.90;;;;;;5070311;28;20458;-67
2022/06/09 02:21:42;;;;;;;17.97;9.50;;;13.30;99.90;;;;;;5065824;28;20464;-67
2022/06/09 02:24:09;;;;;;;19.40;10.13;;;13.30;99.90;;;;;;5079067;28;20473;-67
2022/06/09 02:26:37;;;;;;;20.23;9.90;;;13.40;99.90;;;;;;5073839;28;20473;-68
2022/06/09 02:29:04;;;;;;;18.70;10.00;;;13.40;99.90;;;;;;5074160;28;20495;-66
2022/06/09 02:31:31;;;;;;;36.97;11.63;;;13.40;99.90;;;;;;5065130;28;20468;-67
2022/06/09 02:34:00;;;;;;;22.57;12.50;;;13.40;99.90;;;;;;5075460;28;20458;-66
2022/06/09 02:36:27;;;;;;;19.47;10.10;;;13.40;99.90;;;;;;5069298;28;20965;-67
2022/06/09 02:38:55;;;;;;;25.00;11.80;;;13.40;99.90;;;;;;5072893;28;20458;-67
2022/06/09 02:41:21;;;;;;;19.50;10.60;;;13.40;99.90;;;;;;5075178;28;20465;-67
2022/06/09 02:43:49;;;;;;;24.43;11.83;;;13.50;99.90;;;;;;5068087;28;20463;-66
2022/06/09 02:46:17;;;;;;;19.53;9.80;;;13.40;99.90;;;;;;5075042;28;20481;-66
2022/06/09 02:48:44;;;;;;;23.93;11.00;;;13.40;99.90;;;;;;5070475;28;20484;-67
2022/06/09 02:51:19;;;;;;;20.93;11.20;;;13.40;99.90;;;;;;5069673;28;20820;-67
2022/06/09 02:53:48;;;;;;;27.50;11.70;;;13.50;99.90;;;;;;5076253;28;20457;-68
2022/06/09 02:56:16;;;;;;;24.47;11.20;;;13.40;99.90;;;;;;5075697;28;20948;-66
2022/06/09 02:58:43;;;;;;;24.40;11.53;;;13.40;99.90;;;;;;5066504;28;20484;-68
2022/06/09 03:01:11;;;;;;;14.53;10.40;;;13.40;99.90;;;;;;5077231;28;20485;-68
2022/06/09 03:03:38;;;;;;;23.93;11.10;;;13.50;99.90;;;;;;5070537;28;20467;-68
2022/06/09 03:06:05;;;;;;;20.40;10.20;;;13.50;99.90;;;;;;5076980;28;20493;-67
2022/06/09 03:08:35;;;;;;;23.60;10.13;;;13.60;99.90;;;;;;5070645;28;20506;-68
2022/06/09 03:11:02;;;;;;;23.73;10.07;;;13.60;99.90;;;;;;5072906;28;20462;-66
2022/06/09 03:13:30;;;;;;;26.60;9.43;;;13.60;99.90;;;;;;5070418;28;20795;-67
2022/06/09 03:15:57;;;;;;;27.83;10.60;;;13.70;99.90;;;;;;5062797;28;21035;-67
2022/06/09 03:18:24;;;;;;;22.07;10.40;;;13.60;99.90;;;;;;5070736;28;20488;-67
2022/06/09 03:20:51;;;;;;;27.43;10.70;;;13.60;99.90;;;;;;5072553;28;20862;-67
2022/06/09 03:23:19;;;;;;;25.10;11.20;;;13.70;99.90;;;;;;5065040;28;20458;-66
2022/06/09 03:25:48;;;;;;;19.83;10.70;;;13.70;99.90;;;;;;5080792;28;20541;-68
2022/06/09 03:28:16;;;;;;;28.33;10.30;;;13.70;99.90;;;;;;5065870;28;20485;-67
2022/06/09 03:30:44;;;;;;;21.33;10.20;;;13.70;99.90;;;;;;5071256;28;20466;-68
2022/06/09 03:33:12;;;;;;;25.53;10.50;;;13.70;99.90;;;;;;5071321;28;20626;-67
2022/06/09 03:35:39;;;;;;;25.53;9.77;;;13.70;99.90;;;;;;5077544;28;20446;-68
2022/06/09 03:38:06;;;;;;;33.43;12.10;;;13.60;99.90;;;;;;5069055;28;20500;-66
2022/06/09 03:40:33;;;;;;;23.37;11.20;;;13.60;99.90;;;;;;5074831;28;20798;-67
2022/06/09 03:43:03;;;;;;;19.03;9.83;;;13.70;99.90;;;;;;5073496;28;20463;-67
2022/06/09 03:45:31;;;;;;;18.53;10.53;;;13.70;99.90;;;;;;5063230;28;20962;-67
2022/06/09 03:47:59;;;;;;;28.20;12.50;;;13.80;99.90;;;;;;5073192;28;20489;-69
2022/06/09 03:50:29;;;;;;;24.40;10.30;;;13.80;99.90;;;;;;5063798;28;20483;-67
2022/06/09 03:52:57;;;;;;;35.87;12.03;;;13.80;99.90;;;;;;5076232;28;20459;-68
2022/06/09 03:55:24;;;;;;;29.07;11.70;;;13.80;99.90;;;;;;5078256;28;20471;-67
2022/06/09 03:57:52;;;;;;;25.93;12.70;;;13.70;99.90;;;;;;5065118;28;21009;-68
2022/06/09 04:00:24;;;;;;;35.93;13.27;;;13.70;99.90;;;;;;5073205;28;20499;-66
2022/06/09 04:02:52;;;;;;;28.63;12.03;;;13.60;99.90;;;;;;5055160;28;20528;-68
2022/06/09 04:05:19;;;;;;;40.90;12.63;;;13.70;99.90;;;;;;5066346;28;20450;-67
2022/06/09 04:07:47;;;;;;;27.97;12.10;;;13.80;99.90;;;;;;5045042;28;20966;-66
2022/06/09 04:10:18;;;;;;;25.53;13.00;;;13.90;99.90;;;;;;5041437;28;21066;-67
2022/06/09 04:12:45;;;;;;;32.53;12.30;;;13.90;99.90;;;;;;5041468;28;20466;-66
2022/06/09 04:15:12;;;;;;;26.57;12.93;;;14.00;99.90;;;;;;5056672;28;21411;-68
2022/06/09 04:17:42;;;;;;;30.47;14.50;;;14.00;99.90;;;;;;5074977;28;20463;-68
2022/06/09 04:20:10;;;;;;;28.63;12.00;;;14.00;99.90;;;;;;5058588;28;20462;-68
2022/06/09 04:22:37;;;;;;;20.17;11.83;;;14.00;99.90;;;;;;5042266;28;20462;-67
2022/06/09 04:25:05;;;;;;;27.20;13.23;;;14.00;99.90;;;;;;5040864;28;20462;-67
2022/06/09 04:27:32;;;;;;;25.30;13.20;;;13.90;99.90;;;;;;5041563;28;20560;-68
2022/06/09 04:30:00;;;;;;;35.90;12.80;;;13.90;99.90;;;;;;5040529;28;20458;-67
2022/06/09 04:32:27;;;;;;;29.13;13.27;;;13.90;99.90;;;;;;5041495;28;20729;-67
2022/06/09 04:34:55;;;;;;;24.47;12.67;;;14.00;99.90;;;;;;5041247;28;20545;-66
2022/06/09 04:37:59;;;;;;;22.83;12.80;;;14.20;99.90;;;;;;5058452;28;20490;-67
2022/06/09 04:40:10;;;;;;;24.43;12.17;;;14.30;99.90;;;;;;5065922;28;20461;-68
2022/06/09 04:42:37;;;;;;;26.77;12.27;;;14.50;99.90;;;;;;5043875;28;20517;-67
2022/06/09 04:45:04;;;;;;;38.47;12.87;;;14.70;99.90;;;;;;5041675;28;20718;-67
2022/06/09 04:47:31;;;;;;;24.97;13.10;;;14.70;99.90;;;;;;5040687;28;20501;-67
2022/06/09 04:49:59;;;;;;;28.00;13.00;;;14.80;99.90;;;;;;5039191;28;20510;-66
2022/06/09 04:52:26;;;;;;;22.43;12.77;;;14.90;99.90;;;;;;5042068;28;20473;-67
2022/06/09 04:54:53;;;;;;;25.37;14.17;;;15.00;99.90;;;;;;5040528;28;20477;-67
2022/06/09 04:57:20;;;;;;;30.07;13.67;;;15.00;99.90;;;;;;5041212;28;21088;-68
2022/06/09 04:59:46;;;;;;;24.67;13.83;;;15.10;99.90;;;;;;5041956;28;20467;-68
2022/06/09 05:02:13;;;;;;;26.40;12.00;;;15.20;99.90;;;;;;5037444;28;20477;-69
2022/06/09 05:04:40;;;;;;;35.57;13.80;;;15.20;99.90;;;;;;5043825;28;20470;-68
2022/06/09 05:07:09;;;;;;;22.50;12.23;;;15.20;99.90;;;;;;5045071;28;20467;-67
2022/06/09 05:09:36;;;;;;;27.27;13.27;;;15.20;99.90;;;;;;5043620;28;21329;-68
2022/06/09 05:12:04;;;;;;;30.37;13.37;;;15.00;99.90;;;;;;5065925;28;20469;-67
2022/06/09 05:14:31;;;;;;;32.90;13.47;;;15.00;99.90;;;;;;5062404;28;20475;-67
2022/06/09 05:16:57;;;;;;;27.47;14.90;;;15.00;99.90;;;;;;5072007;28;21506;-68
2022/06/09 05:19:25;;;;;;;29.40;13.33;;;15.00;99.90;;;;;;5070926;28;21027;-67
2022/06/09 05:21:52;;;;;;;22.10;13.40;;;14.80;99.90;;;;;;5048052;28;20517;-68
2022/06/09 05:24:20;;;;;;;29.33;14.27;;;14.70;99.90;;;;;;5044523;28;20985;-66
2022/06/09 05:29:28;;;;;;;28.83;14.40;;;14.70;99.90;;;;;;5041683;28;20485;-67
2022/06/09 05:31:55;;;;;;;26.87;14.97;;;14.70;99.90;;;;;;5043370;28;20470;-67
2022/06/09 05:34:22;;;;;;;30.87;13.50;;;14.70;99.90;;;;;;5044518;28;20474;-68
2022/06/09 05:36:49;;;;;;;20.93;13.60;;;14.80;99.90;;;;;;5043188;28;20475;-66
2022/06/09 05:44:52;;;;;;;26.20;13.10;;;15.10;99.90;;;;;;5044663;28;20570;-68
2022/06/09 05:47:19;;;;;;;26.60;14.87;;;15.20;99.90;;;;;;5043769;28;20456;-67
2022/06/09 05:49:47;;;;;;;27.20;14.10;;;15.30;99.90;;;;;;5042647;28;21151;-69
2022/06/09 05:52:14;;;;;;;24.80;15.50;;;15.50;99.90;;;;;;5044250;28;20465;-68
2022/06/09 05:54:41;;;;;;;31.70;15.50;;;15.60;99.90;;;;;;5045032;28;21186;-69
2022/06/09 05:57:09;;;;;;;29.33;14.97;;;15.60;99.90;;;;;;5044889;28;21088;-68
2022/06/09 05:59:37;;;;;;;28.07;15.30;;;15.80;99.90;;;;;;5044084;28;20506;-68
2022/06/09 06:02:05;;;;;;;21.23;15.97;;;15.90;99.90;;;;;;5054042;28;20455;-67
2022/06/09 06:04:32;;;;;;;24.80;15.57;;;15.80;99.90;;;;;;5069281;28;20458;-67
2022/06/09 06:06:59;;;;;;;24.87;14.80;;;16.00;99.90;;;;;;5073795;28;20461;-67
2022/06/09 06:09:26;;;;;;;20.00;14.77;;;16.10;99.90;;;;;;5063710;28;20503;-67
2022/06/09 06:11:53;;;;;;;29.80;14.50;;;16.20;99.90;;;;;;5046519;28;20456;-66
2022/06/09 06:14:23;;;;;;;24.80;16.23;;;16.30;99.90;;;;;;5039999;28;20487;-67
2022/06/09 06:16:51;;;;;;;21.87;17.80;;;16.10;99.90;;;;;;5067323;28;20481;-68
2022/06/09 06:19:19;;;;;;;24.30;18.00;;;16.00;99.90;;;;;;5069025;28;20533;-67
2022/06/09 06:21:48;;;;;;;25.50;16.30;;;16.00;99.90;;;;;;5062811;28;20494;-69
2022/06/09 06:24:16;;;;;;;19.00;15.50;;;16.10;99.90;;;;;;5042245;28;20673;-67
2022/06/09 06:26:43;;;;;;;27.80;16.93;;;16.10;99.90;;;;;;5042980;28;21226;-69
2022/06/09 06:29:15;;;;;;;25.20;17.83;;;16.10;99.90;;;;;;5041837;28;20482;-68
2022/06/09 06:31:43;;;;;;;27.07;16.47;;;16.00;99.90;;;;;;5040370;28;20468;-67
2022/06/09 06:34:12;;;;;;;26.90;17.80;;;16.00;99.90;;;;;;5041511;28;20971;-68
2022/06/09 06:36:38;;;;;;;22.47;16.23;;;16.20;99.90;;;;;;5041828;28;20457;-67
2022/06/09 06:39:06;;;;;;;22.70;15.47;;;16.20;99.90;;;;;;5041866;28;20525;-68
2022/06/09 06:41:32;;;;;;;34.83;16.03;;;16.20;99.90;;;;;;5041068;28;20475;-67
2022/06/09 06:43:59;;;;;;;27.47;16.83;;;16.50;99.90;;;;;;5041754;28;21046;-68
2022/06/09 06:46:27;;;;;;;17.97;15.80;;;16.50;99.90;;;;;;5041563;28;20754;-66
2022/06/09 06:48:55;;;;;;;19.87;16.40;;;16.60;99.90;;;;;;5041448;28;21025;-67
2022/06/09 06:51:22;;;;;;;20.50;15.63;;;16.70;99.90;;;;;;5040374;28;20471;-67
2022/06/09 06:53:49;;;;;;;18.80;16.80;;;16.90;99.90;;;;;;5042233;28;20466;-67
2022/06/09 06:56:16;;;;;;;23.50;19.00;;;17.10;99.90;;;;;;5038904;28;20467;-67
2022/06/09 06:58:43;;;;;;;21.83;16.83;;;17.00;99.90;;;;;;5041148;28;21262;-69
2022/06/09 07:01:10;;;;;;;27.30;17.97;;;16.90;99.90;;;;;;5041380;28;20462;-68
2022/06/09 07:03:37;;;;;;;22.50;15.67;;;17.20;99.90;;;;;;5039924;28;20515;-68
2022/06/09 07:06:08;;;;;;;20.93;15.80;;;17.50;99.90;;;;;;5038285;28;20463;-68
2022/06/09 07:08:35;;;;;;;25.07;16.00;;;17.40;99.90;;;;;;5038894;28;20498;-67
2022/06/09 07:11:03;;;;;;;20.77;16.47;;;17.40;99.90;;;;;;5040166;28;20466;-67
2022/06/09 07:13:29;;;;;;;18.83;16.90;;;17.50;99.90;;;;;;5042352;28;20830;-68
2022/06/09 07:15:56;;;;;;;26.33;16.80;;;17.40;99.90;;;;;;5059671;28;20510;-68
2022/06/09 07:18:23;;;;;;;19.13;15.70;;;17.50;99.90;;;;;;5065292;28;20463;-68
2022/06/09 07:20:50;;;;;;;20.90;17.53;;;17.60;99.90;;;;;;5043491;28;20471;-67
2022/06/09 07:23:19;;;;;;;21.23;16.53;;;17.60;99.90;;;;;;5040055;28;20754;-67
2022/06/09 07:25:45;;;;;;;27.90;18.57;;;17.60;99.90;;;;;;5039140;28;20885;-67
2022/06/09 07:28:13;;;;;;;18.73;16.90;;;17.20;99.90;;;;;;5040361;28;20451;-68
2022/06/09 07:30:40;;;;;;;18.17;16.20;;;17.30;99.90;;;;;;5040281;28;22383;-69
2022/06/09 07:33:07;;;;;;;25.10;17.53;;;17.40;99.90;;;;;;5037729;28;20560;-66
2022/06/09 07:35:36;;;;;;;20.70;16.67;;;17.40;99.90;;;;;;5038175;28;20473;-68
2022/06/09 07:38:05;;;;;;;19.70;16.57;;;17.50;99.90;;;;;;5030026;28;20463;-68
2022/06/09 07:40:34;;;;;;;18.60;15.90;;;17.50;99.90;;;;;;5031006;28;20481;-67
2022/06/09 07:43:02;;;;;;;19.10;17.10;;;17.40;99.90;;;;;;5033911;28;21140;-69
2022/06/09 07:45:29;;;;;;;19.03;17.10;;;17.60;99.90;;;;;;5045259;28;20468;-68
2022/06/09 07:47:55;;;;;;;24.53;18.70;;;17.50;99.90;;;;;;5060013;28;20470;-68
2022/06/09 07:50:22;;;;;;;21.37;17.50;;;17.60;99.90;;;;;;5063239;28;20940;-68
2022/06/09 07:52:49;;;;;;;20.07;17.90;;;17.80;99.90;;;;;;5062450;28;20534;-67
2022/06/09 07:55:18;;;;;;;23.37;17.17;;;17.80;99.90;;;;;;5043060;28;20465;-68
2022/06/09 07:57:46;;;;;;;19.57;17.53;;;18.00;99.90;;;;;;5032515;28;20458;-68
2022/06/09 08:00:14;;;;;;;17.90;16.10;;;18.30;99.90;;;;;;5033182;28;21064;-68
2022/06/09 08:02:42;;;;;;;23.00;16.00;;;18.60;99.90;;;;;;5032529;28;21193;-68
2022/06/09 08:05:10;;;;;;;18.63;16.70;;;18.90;99.90;;;;;;5033077;28;20468;-67
2022/06/09 08:07:38;;;;;;;18.53;16.47;;;18.90;99.90;;;;;;5032789;28;21023;-68
2022/06/09 08:10:06;;;;;;;18.23;16.50;;;19.00;99.90;;;;;;5032262;28;22416;-67
2022/06/09 08:12:33;;;;;;;19.60;17.80;;;18.90;99.90;;;;;;5032032;28;20943;-67
2022/06/09 08:15:03;;;;;;;19.50;17.30;;;18.90;99.90;;;;;;5031668;28;20486;-67
2022/06/09 08:17:30;;;;;;;20.00;17.00;;;18.80;99.90;;;;;;5031674;28;20495;-67
2022/06/09 08:19:57;;;;;;;20.67;17.80;;;18.70;99.90;;;;;;5031153;28;20468;-67
2022/06/09 08:22:24;;;;;;;18.63;16.83;;;18.80;99.90;;;;;;5031853;28;20461;-67
2022/06/09 08:24:51;;;;;;;19.07;16.97;;;19.10;99.90;;;;;;5032435;28;20471;-67
2022/06/09 08:27:17;;;;;;;20.53;18.53;;;18.90;99.90;;;;;;5032685;28;20475;-67
2022/06/09 08:29:44;;;;;;;22.67;18.80;;;19.00;99.90;;;;;;5032687;28;20471;-68
2022/06/09 08:32:13;;;;;;;22.23;19.43;;;19.00;99.90;;;;;;5031399;28;20988;-67
2022/06/09 08:34:40;;;;;;;20.33;18.47;;;19.40;99.90;;;;;;5031268;28;20475;-68
2022/06/09 08:37:07;;;;;;;19.53;18.20;;;20.00;99.90;;;;;;5029575;28;20474;-67
2022/06/09 08:39:34;;;;;;;21.13;19.20;;;20.10;99.90;;;;;;5032080;28;20462;-69
2022/06/09 08:42:20;;;;;;;21.17;19.43;;;20.30;99.90;;;;;;5034439;28;20462;-66
2022/06/09 08:44:51;;;;;;;20.40;18.67;;;20.40;99.90;;;;;;5032643;28;20544;-70
2022/06/09 08:47:26;;;;;;;20.60;19.00;;;20.30;99.90;;;;;;5033932;28;20463;-68
2022/06/09 08:50:02;;;;;;;19.63;18.23;;;20.20;99.90;;;;;;5027313;28;21337;-67
2022/06/09 08:52:47;;;;;;;20.73;18.67;;;20.30;99.90;;;;;;5027388;28;20463;-68
2022/06/09 08:55:23;;;;;;;20.33;18.53;;;20.30;99.90;;;;;;5033784;28;20463;-67
2022/06/09 08:57:52;;;;;;;19.43;17.50;;;20.50;99.90;;;;;;5034757;28;20450;-69
2022/06/09 09:00:22;;;;;;;19.80;18.23;;;21.20;99.90;;;;;;5034449;28;20498;-67
2022/06/09 09:02:53;;;;;;;18.97;17.67;;;21.60;99.90;;;;;;5035878;28;20459;-67
2022/06/09 09:05:25;;;;;;;19.07;17.53;;;22.10;99.90;;;;;;5034017;28;20463;-67
2022/06/09 09:07:57;;;;;;;19.47;18.00;;;22.50;99.90;;;;;;5035100;28;20487;-67
2022/06/09 09:10:32;;;;;;;19.17;17.90;;;22.50;99.90;;;;;;5049784;28;20494;-67
2022/06/09 09:13:13;;;;;;;20.17;18.37;;;22.10;99.90;;;;;;5054030;28;21032;-68
2022/06/09 09:15:47;;;;;;;20.77;18.70;;;22.10;99.90;;;;;;5056705;28;20865;-69
2022/06/09 09:18:30;;;;;;;20.40;18.53;;;21.50;99.90;;;;;;5039996;28;21006;-69
2022/06/09 09:21:17;;;;;;;21.37;19.33;;;21.90;99.90;;;;;;5034067;28;20521;-68
2022/06/09 09:23:59;;;;;;;21.53;19.43;;;21.90;99.90;;;;;;5030055;28;20506;-69
2022/06/09 09:26:36;;;;;;;19.90;18.53;;;21.50;99.90;;;;;;5031351;28;20535;-69
2022/06/09 09:29:11;;;;;;;18.30;17.00;;;22.20;99.90;;;;;;5031454;28;20473;-68
2022/06/09 09:31:50;;;;;;;19.83;18.33;;;23.10;99.90;;;;;;5027974;28;20477;-68
2022/06/09 09:34:21;;;;;;;18.97;17.63;;;23.40;99.90;;;;;;5033008;28;20458;-68
2022/06/09 09:36:52;;;;;;;19.33;17.90;;;22.90;99.90;;;;;;5044108;28;20475;-68
2022/06/09 09:39:22;;;;;;;19.13;17.73;;;23.10;99.90;;;;;;5048802;28;21568;-70
2022/06/09 09:41:49;;;;;;;19.23;17.73;;;23.00;99.90;;;;;;5029761;28;20474;-68
2022/06/09 09:44:19;;;;;;;19.10;17.60;;;23.60;99.90;;;;;;5036919;28;20466;-68
2022/06/09 09:46:50;;;;;;;19.20;17.83;;;24.20;99.90;;;;;;5037360;28;20995;-68
2022/06/09 09:49:25;;;;;;;19.00;17.30;;;23.70;99.90;;;;;;5033539;28;20496;-70
2022/06/09 09:51:52;;;;;;;19.43;17.57;;;23.10;99.90;;;;;;5036573;28;20466;-68
2022/06/09 09:54:23;;;;;;;19.03;17.90;;;23.00;99.90;;;;;;5043910;28;20462;-70
2022/06/09 09:57:04;;;;;;;19.53;17.93;;;23.00;99.90;;;;;;5061475;28;20468;-70
2022/06/09 09:59:31;;;;;;;21.00;19.17;;;22.40;99.90;;;;;;5060968;28;20471;-68
2022/06/09 10:10:26;;;;;;;18.40;17.10;;;21.90;99.90;;;;;;5036487;28;20827;-70
2022/06/09 10:12:54;;;;;;;18.00;16.60;;;20.80;99.90;;;;;;5037200;28;20451;-68
2022/06/09 10:15:24;;;;;;;17.63;16.20;;;20.30;99.90;;;;;;5036592;28;20495;-67
2022/06/09 10:17:59;;;;;;;16.60;15.50;;;20.70;99.90;;;;;;5035443;28;20550;-67
2022/06/09 10:20:41;;;;;;;18.70;17.03;;;21.40;99.90;;;;;;5060638;28;20461;-67
2022/06/09 10:23:28;;;;;;;19.20;17.40;;;21.70;99.90;;;;;;5053746;28;20474;-69
2022/06/09 10:26:01;;;;;;;19.93;17.77;;;21.00;99.90;;;;;;5036182;28;20476;-67
2022/06/09 10:28:35;;;;;;;17.50;15.90;;;20.90;99.90;;;;;;5036484;28;21403;-67
2022/06/09 10:31:07;;;;;;;17.60;16.10;;;20.90;99.90;;;;;;5034777;28;20509;-69
2022/06/09 10:33:39;;;;;;;17.47;15.60;;;21.40;99.90;;;;;;5034915;28;21079;-68
2022/06/09 10:36:15;;;;;;;18.50;16.80;;;21.00;99.90;;;;;;5035844;28;20509;-65
2022/06/09 10:38:47;;;;;;;18.27;16.43;;;20.00;99.90;;;;;;5036804;28;21005;-69
2022/06/09 10:41:16;;;;;;;16.57;15.43;;;20.00;99.90;;;;;;5036541;28;21156;-69
2022/06/09 10:44:00;;;;;;;18.03;16.20;;;20.20;99.90;;;;;;5035678;28;20463;-67
2022/06/09 10:46:33;;;;;;;19.67;16.10;;;20.10;99.90;;;;;;5037393;28;20924;-66
2022/06/09 10:57:54;;;;;;;17.57;16.07;;;21.30;99.90;;;;;;5031926;28;21031;-67
2022/06/09 11:00:28;;;;;;;18.30;16.53;;;21.50;99.90;;;;;;5035586;28;20471;-66
2022/06/09 11:02:56;;;;;;;17.23;15.83;;;21.50;99.90;;;;;;5036098;28;20459;-70
2022/06/09 11:05:32;;;;;;;18.70;16.87;;;21.50;99.90;;;;;;5034808;28;21329;-69
2022/06/09 11:08:06;;;;;;;18.50;16.87;;;21.30;99.90;;;;;;5038649;28;21682;-69
2022/06/09 11:10:49;;;;;;;18.47;16.90;;;21.30;99.90;;;;;;5040276;28;21081;-66
2022/06/09 11:13:42;;;;;;;22.93;21.00;;;21.60;99.90;;;;;;5042741;28;20467;-66
2022/06/09 11:16:15;;;;;;;28.27;25.60;;;21.40;99.90;;;;;;5036636;28;20484;-67
2022/06/09 11:18:55;;;;;;;28.60;25.60;;;21.00;99.90;;;;;;5042327;28;21031;-66
2022/06/09 11:21:27;;;;;;;26.87;24.40;;;20.40;99.90;;;;;;5042410;28;20473;-68
2022/06/09 11:24:16;;;;;;;27.80;25.20;;;20.00;99.90;;;;;;5041152;28;20454;-66
2022/06/09 11:26:50;;;;;;;27.87;24.90;;;19.60;99.90;;;;;;5042067;28;20809;-67
2022/06/09 11:29:38;;;;;;;27.20;24.57;;;19.30;99.90;;;;;;5038482;28;20985;-67
2022/06/09 11:32:11;;;;;;;20.53;18.30;;;18.90;99.90;;;;;;5036094;28;20494;-67
2022/06/09 11:35:03;;;;;;;20.17;17.30;;;19.00;99.90;;;;;;5037589;28;20467;-67
2022/06/09 11:37:45;;;;;;;20.43;15.73;;;19.10;99.90;;;;;;5037407;28;20471;-66
2022/06/09 11:40:31;;;;;;;15.40;14.00;;;19.40;99.90;;;;;;5033997;28;20547;-66
2022/06/09 11:43:17;;;;;;;16.57;14.80;;;19.50;99.90;;;;;;5034354;28;20464;-67
2022/06/09 11:45:48;;;;;;;15.87;14.07;;;19.40;99.90;;;;;;5035675;28;20467;-67
2022/06/09 11:48:22;;;;;;;16.67;13.77;;;20.20;99.90;;;;;;5035455;28;20471;-67
2022/06/09 11:50:50;;;;;;;15.90;14.33;;;20.90;99.90;;;;;;5036954;28;21221;-68
2022/06/09 11:53:20;;;;;;;17.23;15.50;;;21.00;99.90;;;;;;5036150;28;20475;-67
2022/06/09 11:55:59;;;;;;;28.27;16.40;;;20.70;99.90;;;;;;5032211;28;20557;-67
2022/06/09 11:58:45;;;;;;;17.33;15.60;;;20.60;99.90;;;;;;5035535;28;20462;-67
2022/06/09 12:01:25;;;;;;;18.93;15.90;;;20.20;99.90;;;;;;5035254;28;20504;-68
2022/06/09 12:04:10;;;;;;;18.40;16.00;;;20.20;99.90;;;;;;5035462;28;20563;-67
2022/06/09 12:06:53;;;;;;;16.80;15.40;;;19.60;99.90;;;;;;5035928;28;20456;-67
2022/06/09 12:09:30;;;;;;;15.50;14.20;;;19.40;99.90;;;;;;5034805;28;20478;-70
2022/06/09 12:12:01;;;;;;;15.33;14.27;;;19.00;99.90;;;;;;5034954;28;20586;-67
2022/06/09 12:14:31;;;;;;;15.70;13.53;;;18.50;99.90;;;;;;5035622;28;20518;-67
2022/06/09 12:17:05;;;;;;;14.67;13.37;;;17.80;99.90;;;;;;5035208;28;20466;-67
2022/06/09 12:19:36;;;;;;;14.10;13.30;;;17.40;99.90;;;;;;5037243;28;20463;-65
2022/06/09 12:22:36;;;;;;;19.63;18.20;;;17.20;99.90;;;;;;5036563;28;20527;-66
2022/06/09 12:25:25;;;;;;;23.73;22.03;;;16.50;99.90;;;;;;5036071;28;21096;-69
2022/06/09 12:27:55;;;;;;;25.13;22.73;;;15.60;99.90;;;;;;5058866;28;20455;-69
2022/06/09 12:30:37;;;;;;;24.20;22.40;;;15.10;99.90;;;;;;5060760;28;21068;-66
2022/06/09 12:33:28;;;;;;;24.83;23.13;;;14.90;99.90;;;;;;5060771;28;20474;-69
2022/06/09 12:35:57;;;;;;;23.67;22.00;;;14.60;99.90;;;;;;5056252;28;20649;-70
2022/06/09 12:38:29;;;;;;;26.13;22.47;;;14.60;99.90;;;;;;5035757;28;21077;-67
2022/06/09 12:40:59;;;;;;;23.53;21.83;;;14.60;99.90;;;;;;5035945;28;20470;-66
2022/06/09 12:43:32;;;;;;;21.40;19.93;;;14.60;99.90;;;;;;5035789;28;21056;-68
2022/06/09 12:46:17;;;;;;;21.20;19.80;;;14.50;99.90;;;;;;5036249;28;20960;-68
2022/06/09 12:48:44;;;;;;;19.40;18.20;;;14.50;99.90;;;;;;5035057;28;20549;-68
2022/06/09 12:51:18;;;;;;;20.80;19.53;;;14.60;99.90;;;;;;5036585;28;20712;-68
2022/06/09 12:53:55;;;;;;;20.00;18.80;;;14.70;99.90;;;;;;5036236;28;20782;-68
2022/06/09 12:56:26;;;;;;;18.37;17.17;;;14.70;99.90;;;;;;5036323;28;20505;-67
2022/06/09 12:58:56;;;;;;;18.00;16.97;;;14.90;99.90;;;;;;5035967;28;20455;-68
2022/06/09 13:01:25;;;;;;;18.43;17.43;;;14.90;99.90;;;;;;5036479;28;21561;-67
2022/06/09 13:03:57;;;;;;;18.60;17.50;;;15.00;99.90;;;;;;5035940;28;20470;-68
2022/06/09 13:06:28;;;;;;;20.37;18.97;;;15.10;99.90;;;;;;5036331;28;21001;-68
2022/06/09 13:08:58;;;;;;;20.70;18.70;;;15.10;99.90;;;;;;5034819;28;20494;-68
2022/06/09 13:14:19;;;;;;;19.90;18.53;;;15.40;99.90;;;;;;5035199;28;20473;-68